createdAt,value
2022-12-25T00:04:40.841Z,9.98
2022-12-25T00:09:43.049Z,5.77
2022-12-25T00:14:45.358Z,6.03
2022-12-25T00:19:47.955Z,8.07
2022-12-25T00:24:50.173Z,6.28
2022-12-25T00:29:52.198Z,5.90
2022-12-25T00:34:54.240Z,7.20
2022-12-25T00:39:56.395Z,8.57
2022-12-25T00:44:58.472Z,9.60
2022-12-25T00:50:00.563Z,9.52
2022-12-25T00:55:03.098Z,6.55
2022-12-25T01:00:05.605Z,8.40
2022-12-25T01:05:08.456Z,8.50
2022-12-25T01:10:22.859Z,6.57
2022-12-25T01:15:25.400Z,6.20
2022-12-25T01:20:27.688Z,7.20
2022-12-25T01:25:29.781Z,6.47
2022-12-25T01:30:32.464Z,7.90
2022-12-25T01:35:34.518Z,8.20
2022-12-25T01:40:36.827Z,7.10
2022-12-25T01:45:43.823Z,11.55
2022-12-25T01:50:50.495Z,8.20
2022-12-25T01:56:02.856Z,11.60
2022-12-25T02:01:04.967Z,8.90
2022-12-25T02:06:08.082Z,9.73
2022-12-25T02:11:30.143Z,8.20
2022-12-25T02:16:57.580Z,11.85
2022-12-25T02:22:26.398Z,8.00
2022-12-25T02:27:56.214Z,7.97
2022-12-25T02:33:28.317Z,6.82
2022-12-25T02:38:38.177Z,8.35
2022-12-25T02:44:02.283Z,7.73
2022-12-25T02:49:28.727Z,12.17
2022-12-25T02:54:55.147Z,7.57
2022-12-25T03:00:19.692Z,7.62
2022-12-25T03:05:43.655Z,8.20
2022-12-25T03:11:18.436Z,7.90
2022-12-25T03:16:40.537Z,9.05
2022-12-25T03:22:01.306Z,7.17
2022-12-25T03:27:03.388Z,7.90
2022-12-25T03:32:29.680Z,10.40
2022-12-25T03:38:12.098Z,7.83
2022-12-25T03:44:00.424Z,9.37
2022-12-25T03:49:29.586Z,7.55
2022-12-25T03:54:52.494Z,7.93
2022-12-25T04:00:13.541Z,8.80
2022-12-25T04:05:34.503Z,9.52
2022-12-25T04:10:55.513Z,8.93
2022-12-25T04:16:16.455Z,6.80
2022-12-25T04:21:37.303Z,7.62
2022-12-25T04:26:58.234Z,9.45
2022-12-25T04:32:18.973Z,7.67
2022-12-25T04:37:21.343Z,9.43
2022-12-25T04:42:23.459Z,9.45
2022-12-25T04:47:25.549Z,8.63
2022-12-25T04:52:27.747Z,9.97
2022-12-25T04:57:29.794Z,10.85
2022-12-25T05:02:32.270Z,9.30
2022-12-25T05:07:34.541Z,9.63
2022-12-25T05:12:36.620Z,8.73
2022-12-25T05:17:38.673Z,9.38
2022-12-25T05:22:42.588Z,12.97
2022-12-25T05:27:48.679Z,9.67
2022-12-25T05:32:54.116Z,11.10
2022-12-25T05:37:56.948Z,8.45
2022-12-25T05:42:59.171Z,11.20
2022-12-25T05:48:01.255Z,12.27
2022-12-25T05:53:08.290Z,10.65
2022-12-25T05:58:12.320Z,10.10
2022-12-25T06:03:14.479Z,10.32
2022-12-25T06:08:16.686Z,11.23
2022-12-25T06:13:18.780Z,13.33
2022-12-25T06:18:20.821Z,10.83
2022-12-25T06:23:22.906Z,9.02
2022-12-25T06:28:25.357Z,13.88
2022-12-25T06:33:27.499Z,8.97
2022-12-25T06:38:29.621Z,10.40
2022-12-25T06:43:32.949Z,10.55
2022-12-25T06:48:36.441Z,13.40
2022-12-25T06:53:40.308Z,13.10
2022-12-25T06:58:45.087Z,11.20
2022-12-25T07:03:50.166Z,13.80
2022-12-25T07:08:52.792Z,12.93
2022-12-25T07:13:55.196Z,13.40
2022-12-25T07:19:00.306Z,10.80
2022-12-25T07:24:02.430Z,10.83
2022-12-25T07:29:04.760Z,13.02
2022-12-25T07:34:06.826Z,12.80
2022-12-25T07:39:11.176Z,12.47
2022-12-25T07:44:13.673Z,13.15
2022-12-25T07:49:15.731Z,14.60
2022-12-25T07:54:17.929Z,13.80
2022-12-25T07:59:20.612Z,15.73
2022-12-25T08:04:22.713Z,12.43
2022-12-25T08:09:24.909Z,12.73
2022-12-25T08:14:27.012Z,15.67
2022-12-25T08:19:29.303Z,14.30
2022-12-25T08:24:31.380Z,15.95
2022-12-25T08:29:33.825Z,17.13
2022-12-25T08:34:38.310Z,19.50
2022-12-25T08:39:40.399Z,19.00
2022-12-25T08:44:42.536Z,21.63
2022-12-25T08:49:44.624Z,23.57
2022-12-25T08:54:47.370Z,22.23
2022-12-25T08:59:49.499Z,21.37
2022-12-25T09:04:51.622Z,20.53
2022-12-25T09:09:53.752Z,24.73
2022-12-25T09:14:55.825Z,22.23
2022-12-25T09:19:57.918Z,21.30
2022-12-25T09:25:00.036Z,18.40
2022-12-25T09:30:03.837Z,16.42
2022-12-25T09:35:07.885Z,18.87
2022-12-25T09:40:17.278Z,17.70
2022-12-25T09:45:38.733Z,16.73
2022-12-25T09:50:46.570Z,12.45
2022-12-25T09:55:57.734Z,11.77
2022-12-25T10:01:26.295Z,12.23
2022-12-25T10:07:07.622Z,11.32
2022-12-25T10:12:24.044Z,12.30
2022-12-25T10:17:36.073Z,7.25
2022-12-25T10:22:45.287Z,8.95
2022-12-25T10:27:52.879Z,9.30
2022-12-25T10:32:57.205Z,10.47
2022-12-25T10:38:06.220Z,10.77
2022-12-25T10:43:45.758Z,10.77
2022-12-25T10:48:51.883Z,11.13
2022-12-25T10:53:53.983Z,8.85
2022-12-25T10:59:06.415Z,12.85
2022-12-25T11:04:19.944Z,9.33
2022-12-25T11:09:22.218Z,9.57
2022-12-25T11:14:25.493Z,8.40
2022-12-25T11:19:30.908Z,10.00
2022-12-25T11:24:33.930Z,9.63
2022-12-25T11:29:50.706Z,9.18
2022-12-25T11:34:54.171Z,11.68
2022-12-25T11:39:56.425Z,8.00
2022-12-25T11:45:03.015Z,8.40
2022-12-25T11:50:28.618Z,9.68
2022-12-25T11:55:48.266Z,7.97
2022-12-25T12:00:53.731Z,8.07
2022-12-25T12:06:01.871Z,10.40
2022-12-25T12:11:16.199Z,9.87
2022-12-25T12:16:18.895Z,10.67
2022-12-25T12:21:27.602Z,10.60
2022-12-25T12:26:34.670Z,9.18
2022-12-25T12:31:47.287Z,9.17
2022-12-25T12:36:52.740Z,8.18
2022-12-25T12:41:54.913Z,8.98
2022-12-25T12:46:57.715Z,5.73
2022-12-25T12:52:24.216Z,8.23
2022-12-25T12:57:29.834Z,6.55
2022-12-25T13:02:56.949Z,8.50
2022-12-25T13:08:50.252Z,8.40
2022-12-25T13:13:55.137Z,8.05
2022-12-25T13:18:57.727Z,7.05
2022-12-25T13:24:02.239Z,10.37
2022-12-25T13:29:11.048Z,9.80
2022-12-25T13:34:35.872Z,10.25
2022-12-25T13:39:46.883Z,8.53
2022-12-25T13:45:01.692Z,10.00
2022-12-25T13:50:26.651Z,8.00
2022-12-25T13:55:30.551Z,13.03
2022-12-25T14:00:35.785Z,9.23
2022-12-25T14:05:42.951Z,11.95
2022-12-25T14:10:49.218Z,12.85
2022-12-25T14:15:53.546Z,14.83
2022-12-25T14:21:08.111Z,12.70
2022-12-25T14:26:17.552Z,13.80
2022-12-25T14:31:21.470Z,12.17
2022-12-25T14:36:23.873Z,12.68
2022-12-25T14:41:33.886Z,13.25
2022-12-25T14:46:36.166Z,11.70
2022-12-25T14:51:39.120Z,12.27
2022-12-25T14:56:47.202Z,11.05
2022-12-25T15:02:01.208Z,15.07
2022-12-25T15:07:09.668Z,16.13
2022-12-25T15:12:12.494Z,17.48
2022-12-25T15:17:26.412Z,14.23
2022-12-25T15:22:47.747Z,16.17
2022-12-25T15:27:50.850Z,17.10
2022-12-25T15:32:52.928Z,17.48
2022-12-25T15:37:54.980Z,18.57
2022-12-25T15:42:57.175Z,19.50
2022-12-25T15:47:59.370Z,15.02
2022-12-25T15:53:01.501Z,17.48
2022-12-25T15:58:03.584Z,16.93
2022-12-25T16:03:05.845Z,17.98
2022-12-25T16:08:09.276Z,17.23
2022-12-25T16:13:11.447Z,15.40
2022-12-25T16:18:13.633Z,16.58
2022-12-25T16:23:15.775Z,17.52
2022-12-25T16:28:17.863Z,19.37
2022-12-25T16:33:19.994Z,18.47
2022-12-25T16:38:22.204Z,18.87
2022-12-25T16:43:26.069Z,19.17
2022-12-25T16:48:28.270Z,20.50
2022-12-25T16:53:30.417Z,17.08
2022-12-25T16:58:32.533Z,19.45
2022-12-25T17:03:34.906Z,18.73
2022-12-25T17:08:37.112Z,19.12
2022-12-25T17:13:39.361Z,20.23
2022-12-25T17:18:42.683Z,19.10
2022-12-25T17:23:45.232Z,18.70
2022-12-25T17:28:47.370Z,19.00
2022-12-25T17:33:49.501Z,20.20
2022-12-25T17:38:51.668Z,22.37
2022-12-25T17:43:54.277Z,23.10
2022-12-25T17:48:58.247Z,20.80
2022-12-25T17:54:03.284Z,18.57
2022-12-25T17:59:08.360Z,14.65
2022-12-25T18:04:10.603Z,15.10
2022-12-25T18:09:13.111Z,16.90
2022-12-25T18:14:16.581Z,15.90
2022-12-25T18:19:19.736Z,14.35
2022-12-25T18:24:21.856Z,20.75
2022-12-25T18:29:23.941Z,15.43
2022-12-25T18:34:26.037Z,15.80
2022-12-25T18:39:28.723Z,16.65
2022-12-25T18:44:30.854Z,17.13
2022-12-25T18:49:33.435Z,15.00
2022-12-25T18:54:35.604Z,16.62
2022-12-25T18:59:37.844Z,15.30
2022-12-25T19:04:40.513Z,17.93
2022-12-25T19:09:42.676Z,18.58
2022-12-25T19:14:47.036Z,18.75
2022-12-25T19:19:50.607Z,20.67
2022-12-25T19:24:52.866Z,17.65
2022-12-25T19:29:55.059Z,16.17
2022-12-25T19:34:57.169Z,20.17
2022-12-25T19:39:59.229Z,18.40
2022-12-25T19:45:03.452Z,17.37
2022-12-25T19:50:06.163Z,17.70
2022-12-25T19:55:08.736Z,18.50
2022-12-25T20:00:11.167Z,19.45
2022-12-25T20:05:13.237Z,17.10
2022-12-25T20:10:15.411Z,26.60
2022-12-25T20:15:17.594Z,26.75
2022-12-25T20:20:19.674Z,20.83
2022-12-25T20:25:21.734Z,18.87
2022-12-25T20:30:23.883Z,17.33
2022-12-25T20:35:25.957Z,17.37
2022-12-25T20:40:28.058Z,22.93
2022-12-25T20:45:30.760Z,23.43
2022-12-25T20:50:32.891Z,21.30
2022-12-25T20:55:35.008Z,21.40
2022-12-25T21:00:40.361Z,17.63
2022-12-25T21:05:49.884Z,19.60
2022-12-25T21:10:55.515Z,20.67
2022-12-25T21:15:58.537Z,18.00
2022-12-25T21:21:05.457Z,19.30
2022-12-25T21:26:11.761Z,17.80
2022-12-25T21:31:14.079Z,18.00
2022-12-25T21:36:16.848Z,21.77
2022-12-25T21:41:18.952Z,20.27
2022-12-25T21:46:21.998Z,19.92
2022-12-25T21:51:46.447Z,16.57
2022-12-25T21:56:49.595Z,19.60
2022-12-25T22:01:52.785Z,15.10
2022-12-25T22:07:13.251Z,18.53
2022-12-25T22:12:35.814Z,17.23
2022-12-25T22:17:59.181Z,19.40
2022-12-25T22:23:01.539Z,19.43
2022-12-25T22:28:03.720Z,19.13
2022-12-25T22:33:06.757Z,18.33
2022-12-25T22:38:08.856Z,15.57
2022-12-25T22:43:10.957Z,17.60
2022-12-25T22:48:13.034Z,17.80
2022-12-25T22:53:15.113Z,20.25
2022-12-25T22:58:17.239Z,19.23
2022-12-25T23:03:19.407Z,17.30
2022-12-25T23:08:22.153Z,18.48
2022-12-25T23:13:42.478Z,17.87
2022-12-25T23:19:03.006Z,15.60
2022-12-25T23:24:23.989Z,16.83
2022-12-25T23:29:37.860Z,16.05
2022-12-25T23:34:41.543Z,16.53
2022-12-25T23:39:43.688Z,19.70
2022-12-25T23:44:45.837Z,16.25
2022-12-25T23:49:48.255Z,15.50
2022-12-25T23:54:50.344Z,16.35
2022-12-25T23:59:52.488Z,16.02
